KBTM/BTM METAR and TAF weather

Enter ICAO airport designator
Station Type Date Time Source
KBTM METAR 2022/08/13 10:53 UTC NOAA

KBTM 131053Z AUTO 27004KT 10SM FEW044 BKN090 BKN110 13/12 A3023 RMK AO2 RAE52 SLP174 P0007 T01330117


Station Type Date Time Source
KBTM Decoded METAR 2022/08/13 10:53 UTC NOAA

BERT MOONEY AIRPORT, MT, United States (KBTM) 45-58N 112-30W 1688M
Aug 13, 2022 - 06:53 AM EDT / 2022.08.13 1053 UTC
Wind: from the W (270 degrees) at 5 MPH (4 KT):0
Visibility: 10 mile(s):0
Sky conditions: mostly cloudy
Precipitation last hour: 0.07 inches
Temperature: 55.9 F (13.3 C)
Dew Point: 53.1 F (11.7 C)
Relative Humidity: 90%
Pressure (altimeter): 30.23 in. Hg (1023 hPa)
ob: KBTM 131053Z AUTO 27004KT 10SM FEW044 BKN090 BKN110 13/12 A3023 RMK AO2 RAE52 SLP174 P0007 T01330117
cycle: 11

Station Type Date Time Source
KBTM TAF 2022/08/13 12:22 UTC NOAA

TAF KBTM 131120Z 1312/1412 13010KT P6SM FEW050 BKN090 OVC110
FM132100 30014G24KT P6SM SCT150
FM140000 29015G27KT P6SM VCTS SCT100CB
FM140200 29012KT P6SM SCT100

Example: see airport list